sensor_id;sensor_type;location;lat;lon;timestamp;pressure;altitude;pressure_sealevel;temperature;humidity
56632;BME280;42503;39.928;-75.152;2023-02-07T00:00:19;102089.16;;;22.23;31.40
56632;BME280;42503;39.928;-75.152;2023-02-07T00:10:21;102102.81;;;22.25;31.46
56632;BME280;42503;39.928;-75.152;2023-02-07T00:20:22;102121.03;;;22.32;31.25
56632;BME280;42503;39.928;-75.152;2023-02-07T00:30:25;102141.69;;;22.31;31.29
56632;BME280;42503;39.928;-75.152;2023-02-07T00:40:29;102157.47;;;22.48;31.42
56632;BME280;42503;39.928;-75.152;2023-02-07T00:50:33;102149.69;;;22.50;31.09
56632;BME280;42503;39.928;-75.152;2023-02-07T01:00:37;102174.84;;;22.55;30.85
56632;BME280;42503;39.928;-75.152;2023-02-07T01:10:40;102166.84;;;22.37;30.94
56632;BME280;42503;39.928;-75.152;2023-02-07T01:20:42;102213.91;;;22.55;30.77
56632;BME280;42503;39.928;-75.152;2023-02-07T01:30:43;102223.09;;;22.55;30.89
56632;BME280;42503;39.928;-75.152;2023-02-07T01:40:45;102214.47;;;22.57;30.69
56632;BME280;42503;39.928;-75.152;2023-02-07T01:50:54;102219.78;;;22.58;30.30
56632;BME280;42503;39.928;-75.152;2023-02-07T02:01:06;102246.31;;;22.61;30.75
56632;BME280;42503;39.928;-75.152;2023-02-07T02:33:13;102254.13;;;22.86;31.04
56632;BME280;42503;39.928;-75.152;2023-02-07T02:43:33;102252.34;;;22.97;30.59
56632;BME280;42503;39.928;-75.152;2023-02-07T02:53:50;102273.09;;;23.06;30.49
56632;BME280;42503;39.928;-75.152;2023-02-07T03:14:29;102307.91;;;23.25;30.62
56632;BME280;42503;39.928;-75.152;2023-02-07T03:24:40;102314.00;;;23.22;30.76
56632;BME280;42503;39.928;-75.152;2023-02-07T03:34:51;102322.94;;;23.19;30.98
56632;BME280;42503;39.928;-75.152;2023-02-07T03:44:54;102388.03;;;23.47;30.35
56632;BME280;42503;39.928;-75.152;2023-02-07T03:54:56;102376.63;;;23.53;30.89
56632;BME280;42503;39.928;-75.152;2023-02-07T04:04:57;102374.66;;;23.54;30.55
56632;BME280;42503;39.928;-75.152;2023-02-07T04:14:59;102386.94;;;23.53;30.49
56632;BME280;42503;39.928;-75.152;2023-02-07T04:25:01;102410.69;;;23.50;30.99
56632;BME280;42503;39.928;-75.152;2023-02-07T04:35:06;102415.41;;;23.50;30.65
56632;BME280;42503;39.928;-75.152;2023-02-07T04:45:07;102406.97;;;23.45;30.71
56632;BME280;42503;39.928;-75.152;2023-02-07T04:55:09;102402.41;;;23.33;31.07
56632;BME280;42503;39.928;-75.152;2023-02-07T05:05:13;102420.28;;;23.32;30.78
56632;BME280;42503;39.928;-75.152;2023-02-07T05:15:20;102421.16;;;23.38;30.55
56632;BME280;42503;39.928;-75.152;2023-02-07T05:25:22;102420.38;;;23.43;30.14
56632;BME280;42503;39.928;-75.152;2023-02-07T05:35:23;102406.09;;;23.39;29.67
56632;BME280;42503;39.928;-75.152;2023-02-07T05:45:27;102406.13;;;23.44;29.43
56632;BME280;42503;39.928;-75.152;2023-02-07T05:55:31;102401.38;;;23.45;29.65
56632;BME280;42503;39.928;-75.152;2023-02-07T06:05:35;102412.56;;;23.45;30.05
56632;BME280;42503;39.928;-75.152;2023-02-07T06:15:36;102434.34;;;23.43;30.28
56632;BME280;42503;39.928;-75.152;2023-02-07T06:25:40;102407.59;;;23.25;30.36
56632;BME280;42503;39.928;-75.152;2023-02-07T06:35:41;102449.66;;;23.40;30.16
56632;BME280;42503;39.928;-75.152;2023-02-07T06:45:47;102458.31;;;23.39;30.11
56632;BME280;42503;39.928;-75.152;2023-02-07T06:55:49;102454.31;;;23.29;30.12
56632;BME280;42503;39.928;-75.152;2023-02-07T07:05:53;102462.47;;;23.36;29.87
56632;BME280;42503;39.928;-75.152;2023-02-07T07:15:54;102462.41;;;23.31;29.69
56632;BME280;42503;39.928;-75.152;2023-02-07T07:25:55;102463.19;;;23.26;29.36
56632;BME280;42503;39.928;-75.152;2023-02-07T07:35:58;102477.16;;;23.26;29.13
56632;BME280;42503;39.928;-75.152;2023-02-07T07:46:00;102511.72;;;23.20;29.26
56632;BME280;42503;39.928;-75.152;2023-02-07T07:56:04;102531.28;;;23.20;29.43
56632;BME280;42503;39.928;-75.152;2023-02-07T08:06:06;102504.38;;;23.14;29.55
56632;BME280;42503;39.928;-75.152;2023-02-07T08:16:08;102511.41;;;23.00;29.69
56632;BME280;42503;39.928;-75.152;2023-02-07T08:26:10;102563.09;;;23.19;29.16
56632;BME280;42503;39.928;-75.152;2023-02-07T08:36:12;102582.13;;;23.22;29.23
56632;BME280;42503;39.928;-75.152;2023-02-07T08:46:13;102563.41;;;23.23;29.25
56632;BME280;42503;39.928;-75.152;2023-02-07T08:56:15;102577.56;;;23.16;29.00
56632;BME280;42503;39.928;-75.152;2023-02-07T09:06:16;102595.00;;;23.23;29.00
56632;BME280;42503;39.928;-75.152;2023-02-07T09:16:17;102612.59;;;23.24;29.08
56632;BME280;42503;39.928;-75.152;2023-02-07T09:26:20;102625.72;;;23.23;28.85
56632;BME280;42503;39.928;-75.152;2023-02-07T09:36:27;102620.63;;;23.20;29.18
56632;BME280;42503;39.928;-75.152;2023-02-07T09:46:36;102620.03;;;23.18;28.82
56632;BME280;42503;39.928;-75.152;2023-02-07T09:56:42;102606.44;;;23.05;28.81
56632;BME280;42503;39.928;-75.152;2023-02-07T10:06:47;102605.34;;;23.06;29.07
56632;BME280;42503;39.928;-75.152;2023-02-07T10:37:43;102636.72;;;23.13;29.04
56632;BME280;42503;39.928;-75.152;2023-02-07T10:47:48;102639.50;;;23.13;28.70
56632;BME280;42503;39.928;-75.152;2023-02-07T10:57:53;102672.72;;;23.10;28.71
56632;BME280;42503;39.928;-75.152;2023-02-07T11:17:59;102658.91;;;23.03;28.38
56632;BME280;42503;39.928;-75.152;2023-02-07T11:28:01;102654.41;;;23.02;28.34
56632;BME280;42503;39.928;-75.152;2023-02-07T11:38:11;102667.75;;;22.83;31.06
56632;BME280;42503;39.928;-75.152;2023-02-07T11:48:41;102691.53;;;22.57;30.98
56632;BME280;42503;39.928;-75.152;2023-02-07T11:58:47;102634.53;;;21.96;31.27
56632;BME280;42503;39.928;-75.152;2023-02-07T12:08:49;102709.59;;;22.38;30.96
56632;BME280;42503;39.928;-75.152;2023-02-07T12:19:02;102700.41;;;22.25;31.02
56632;BME280;42503;39.928;-75.152;2023-02-07T12:39:36;102722.75;;;22.14;31.43
56632;BME280;42503;39.928;-75.152;2023-02-07T13:00:22;102726.59;;;22.24;32.62
56632;BME280;42503;39.928;-75.152;2023-02-07T13:31:40;102753.41;;;22.54;30.78
56632;BME280;42503;39.928;-75.152;2023-02-07T14:02:21;102759.44;;;22.63;30.77
56632;BME280;42503;39.928;-75.152;2023-02-07T14:12:27;102746.97;;;22.65;31.09
56632;BME280;42503;39.928;-75.152;2023-02-07T14:23:17;102724.63;;;22.65;30.63
56632;BME280;42503;39.928;-75.152;2023-02-07T14:33:14;102749.38;;;22.62;30.48
56632;BME280;42503;39.928;-75.152;2023-02-07T14:43:21;102734.69;;;22.66;30.33
56632;BME280;42503;39.928;-75.152;2023-02-07T14:53:23;102741.88;;;22.62;30.41
56632;BME280;42503;39.928;-75.152;2023-02-07T15:03:28;102764.09;;;22.57;29.99
56632;BME280;42503;39.928;-75.152;2023-02-07T15:13:33;102782.31;;;22.48;30.18
56632;BME280;42503;39.928;-75.152;2023-02-07T15:23:36;102786.22;;;22.47;30.02
56632;BME280;42503;39.928;-75.152;2023-02-07T15:33:46;102807.06;;;22.44;30.11
56632;BME280;42503;39.928;-75.152;2023-02-07T15:43:59;102811.69;;;22.39;29.84
56632;BME280;42503;39.928;-75.152;2023-02-07T15:54:01;102770.00;;;22.20;30.12
56632;BME280;42503;39.928;-75.152;2023-02-07T16:04:03;102789.66;;;22.25;29.84
56632;BME280;42503;39.928;-75.152;2023-02-07T16:14:21;102767.72;;;22.17;29.97
56632;BME280;42503;39.928;-75.152;2023-02-07T16:24:25;102772.94;;;22.14;30.05
56632;BME280;42503;39.928;-75.152;2023-02-07T16:34:29;102744.94;;;22.08;30.01
56632;BME280;42503;39.928;-75.152;2023-02-07T16:44:33;102707.22;;;22.06;30.13
56632;BME280;42503;39.928;-75.152;2023-02-07T16:54:35;102654.63;;;21.98;30.61
56632;BME280;42503;39.928;-75.152;2023-02-07T17:04:37;102607.78;;;21.95;30.89
56632;BME280;42503;39.928;-75.152;2023-02-07T17:14:38;102583.66;;;21.89;30.85
56632;BME280;42503;39.928;-75.152;2023-02-07T17:24:39;102584.66;;;21.82;30.70
56632;BME280;42503;39.928;-75.152;2023-02-07T17:34:41;102585.34;;;21.90;30.42
56632;BME280;42503;39.928;-75.152;2023-02-07T17:44:42;102557.91;;;21.98;30.08
56632;BME280;42503;39.928;-75.152;2023-02-07T17:54:43;102535.34;;;22.12;30.18
56632;BME280;42503;39.928;-75.152;2023-02-07T18:04:45;102485.09;;;22.23;29.95
56632;BME280;42503;39.928;-75.152;2023-02-07T18:14:47;102486.88;;;22.29;29.73
56632;BME280;42503;39.928;-75.152;2023-02-07T18:24:48;102460.75;;;22.36;29.88
56632;BME280;42503;39.928;-75.152;2023-02-07T18:34:49;102452.47;;;22.41;29.81
56632;BME280;42503;39.928;-75.152;2023-02-07T18:44:51;102423.22;;;22.43;29.36
56632;BME280;42503;39.928;-75.152;2023-02-07T18:54:52;102372.16;;;22.43;29.58
56632;BME280;42503;39.928;-75.152;2023-02-07T19:04:54;102347.00;;;22.38;29.46
56632;BME280;42503;39.928;-75.152;2023-02-07T19:14:55;102331.78;;;22.45;29.53
56632;BME280;42503;39.928;-75.152;2023-02-07T19:24:56;102305.56;;;22.46;29.74
56632;BME280;42503;39.928;-75.152;2023-02-07T19:34:58;102284.38;;;22.45;29.40
56632;BME280;42503;39.928;-75.152;2023-02-07T19:44:59;102261.44;;;22.43;29.67
56632;BME280;42503;39.928;-75.152;2023-02-07T19:55:03;102264.88;;;22.28;29.50
56632;BME280;42503;39.928;-75.152;2023-02-07T20:05:05;102287.31;;;22.39;29.50
56632;BME280;42503;39.928;-75.152;2023-02-07T20:15:12;102297.31;;;22.35;29.87
56632;BME280;42503;39.928;-75.152;2023-02-07T20:25:14;102275.53;;;22.31;29.68
56632;BME280;42503;39.928;-75.152;2023-02-07T20:35:15;102240.91;;;22.27;29.81
56632;BME280;42503;39.928;-75.152;2023-02-07T20:45:16;102222.41;;;22.21;29.96
56632;BME280;42503;39.928;-75.152;2023-02-07T20:55:18;102248.03;;;22.18;29.73
56632;BME280;42503;39.928;-75.152;2023-02-07T21:05:22;102290.91;;;22.17;29.94
56632;BME280;42503;39.928;-75.152;2023-02-07T21:15:23;102278.63;;;22.13;30.02
56632;BME280;42503;39.928;-75.152;2023-02-07T21:25:24;102260.69;;;22.09;29.89
56632;BME280;42503;39.928;-75.152;2023-02-07T21:35:26;102265.94;;;22.05;30.43
56632;BME280;42503;39.928;-75.152;2023-02-07T21:45:27;102260.00;;;22.02;30.11
56632;BME280;42503;39.928;-75.152;2023-02-07T21:55:28;102224.47;;;21.92;30.56
56632;BME280;42503;39.928;-75.152;2023-02-07T22:05:31;102190.13;;;21.87;30.39
56632;BME280;42503;39.928;-75.152;2023-02-07T22:15:33;102164.44;;;21.85;30.65
56632;BME280;42503;39.928;-75.152;2023-02-07T22:25:38;102128.16;;;21.79;30.44
56632;BME280;42503;39.928;-75.152;2023-02-07T22:35:41;102137.19;;;21.87;30.70
56632;BME280;42503;39.928;-75.152;2023-02-07T22:45:46;102133.69;;;21.96;30.26
56632;BME280;42503;39.928;-75.152;2023-02-07T22:55:47;102136.88;;;22.05;29.99
56632;BME280;42503;39.928;-75.152;2023-02-07T23:05:48;102107.47;;;22.14;30.41
56632;BME280;42503;39.928;-75.152;2023-02-07T23:15:50;102129.22;;;22.17;30.27
56632;BME280;42503;39.928;-75.152;2023-02-07T23:25:53;102134.78;;;22.17;30.75
56632;BME280;42503;39.928;-75.152;2023-02-07T23:35:58;102124.25;;;22.19;30.77
56632;BME280;42503;39.928;-75.152;2023-02-07T23:45:59;102122.63;;;22.23;31.02
56632;BME280;42503;39.928;-75.152;2023-02-07T23:56:02;102108.13;;;22.26;30.70
